Portada
METAR-TAF:

METAR-TAF

Aeropuertos :

Bou Saâda, Argelia

latitud: 35-20N, longitud: 004-12E, altitud: 461 m

Observación

El informe se hizo hace 8 horas y 56 minutos, a las 18:00 UTC
Viento 5 kt del este
Temperatura 15°C
Humedad 55%
Presión 1017 hPa
Visibilidad: 8000 m
Escasas nubes a una altura de 3000 ft
Cielo nuboso a una altura de 20000 ft

METAR: DAAD 171800Z 08005KT 8000 FEW030 BKN200 15/06 Q1017

Hora: 03:56 (02:56 UTC)

Pronóstico

El informe se hizo hace 9 horas y 56 minutos, a las 17:00 UTC
Pronóstico válido del 17 a las 18 UTC al 18 a las 03 UTC
Viento 8 kt del este-noreste
Visibilidad: 8000 m
Escasas nubes a una altura de 3000 ft
Nubes dispersas a una altura de 10000 ft
Probabilidad 30% :
Temporalmente
del 17 a las 18 UTC al 17 a las 21 UTC
Escasas nubes a una altura de 3000 ft, Cumulus congestus.

TAF: DAAD 171700Z 1718/1803 06008KT 8000 FEW030 SCT100 PROB30 TEMPO 1718/1721 FEW030TCU

Observaciones y pronósticos meteorológicos de más de 4000 aeropuertos (mensajes METAR y TAF).

Los puntos amarillos y rojos representan las estaciones disponibles.

Ponga el ratón en el punto deseado para ver el nombre de la estación.

Haga clic para ver las observaciones y los pronósticos meteorológicos.

Para cambiar el mapa : haga clic en los botones verdes con una cruz de color negro para hacer un zoom, en el botón verde con un guión para alejar o en las flechas verdes para mapas adyacentes.


METAR-TAF: